createdAt,value
2018-12-16T00:01:55.602Z,10.97
2018-12-16T00:04:22.469Z,10.00
2018-12-16T00:06:49.310Z,8.60
2018-12-16T00:09:16.319Z,9.40
2018-12-16T00:11:43.176Z,9.13
2018-12-16T00:14:10.025Z,10.00
2018-12-16T00:16:36.852Z,8.20
2018-12-16T00:19:03.678Z,9.50
2018-12-16T00:21:30.519Z,8.70
2018-12-16T00:23:57.353Z,7.50
2018-12-16T00:26:24.188Z,8.60
2018-12-16T00:28:55.346Z,7.00
2018-12-16T00:31:28.349Z,8.67
2018-12-16T00:33:55.161Z,7.80
2018-12-16T00:36:22.022Z,8.47
2018-12-16T00:38:48.862Z,10.47
2018-12-16T00:41:15.714Z,9.30
2018-12-16T00:43:42.582Z,7.97
2018-12-16T00:46:09.409Z,9.13
2018-12-16T00:48:36.243Z,10.00
2018-12-16T00:51:03.095Z,7.20
2018-12-16T00:53:29.956Z,7.37
2018-12-16T00:55:56.977Z,9.23
2018-12-16T00:58:23.810Z,9.83
2018-12-16T01:00:50.658Z,7.50
2018-12-16T01:03:17.498Z,9.30
2018-12-16T01:05:44.324Z,8.67
2018-12-16T01:08:11.159Z,8.03
2018-12-16T01:10:38.038Z,8.77
2018-12-16T01:13:04.891Z,8.23
2018-12-16T01:15:31.721Z,8.13
2018-12-16T01:17:58.558Z,7.20
2018-12-16T01:20:25.543Z,7.73
2018-12-16T01:22:52.358Z,8.07
2018-12-16T01:25:19.288Z,8.73
2018-12-16T01:27:46.124Z,10.20
2018-12-16T01:30:13.173Z,8.60
2018-12-16T01:32:40.010Z,6.97
2018-12-16T01:35:06.850Z,8.27
2018-12-16T01:37:33.686Z,8.40
2018-12-16T01:40:00.669Z,8.03
2018-12-16T01:42:27.515Z,7.00
2018-12-16T01:44:54.381Z,9.90
2018-12-16T01:47:21.225Z,8.80
2018-12-16T01:49:48.264Z,6.73
2018-12-16T01:52:15.095Z,7.70
2018-12-16T01:54:41.957Z,9.37
2018-12-16T01:57:08.870Z,10.20
2018-12-16T01:59:35.874Z,7.27
2018-12-16T02:02:02.745Z,6.53
2018-12-16T02:04:29.564Z,8.10
2018-12-16T02:06:56.686Z,6.97
2018-12-16T02:09:23.522Z,7.00
2018-12-16T02:11:50.459Z,8.13
2018-12-16T02:14:17.466Z,7.50
2018-12-16T02:16:44.365Z,7.77
2018-12-16T02:19:11.283Z,8.50
2018-12-16T02:21:38.356Z,7.70
2018-12-16T02:24:05.322Z,6.13
2018-12-16T02:26:33.989Z,5.77
2018-12-16T02:29:01.021Z,7.57
2018-12-16T02:31:27.858Z,6.90
2018-12-16T02:33:56.149Z,7.97
2018-12-16T02:36:24.229Z,7.10
2018-12-16T02:38:51.286Z,7.90
2018-12-16T02:41:18.302Z,7.60
2018-12-16T02:43:45.987Z,5.30
2018-12-16T02:46:12.921Z,6.27
2018-12-16T02:48:39.961Z,6.37
2018-12-16T02:51:07.105Z,5.90
2018-12-16T02:53:33.922Z,7.10
2018-12-16T02:56:01.625Z,7.13
2018-12-16T02:58:28.642Z,6.43
2018-12-16T03:00:55.683Z,6.30
2018-12-16T03:03:22.625Z,6.57
2018-12-16T03:05:49.578Z,6.20
2018-12-16T03:08:16.411Z,6.33
2018-12-16T03:10:43.448Z,7.70
2018-12-16T03:13:10.373Z,5.67
2018-12-16T03:15:37.298Z,6.80
2018-12-16T03:18:04.360Z,5.70
2018-12-16T03:20:31.691Z,5.97
2018-12-16T03:22:58.696Z,6.70
2018-12-16T03:25:25.556Z,6.10
2018-12-16T03:27:52.560Z,6.57
2018-12-16T03:30:19.613Z,7.03
2018-12-16T03:32:46.578Z,6.43
2018-12-16T03:35:13.492Z,5.97
2018-12-16T03:37:40.447Z,6.83
2018-12-16T03:40:07.529Z,8.27
2018-12-16T03:42:34.538Z,6.10
2018-12-16T03:45:02.738Z,5.83
2018-12-16T03:47:32.695Z,7.23
2018-12-16T03:49:59.937Z,6.17
2018-12-16T03:52:26.828Z,5.23
2018-12-16T03:55:02.394Z,5.50
2018-12-16T03:57:29.420Z,4.97
2018-12-16T03:59:56.593Z,5.43
2018-12-16T04:02:23.498Z,6.63
2018-12-16T04:04:50.389Z,5.03
2018-12-16T04:07:17.309Z,6.70
2018-12-16T04:09:44.304Z,6.17
2018-12-16T04:12:11.169Z,6.97
2018-12-16T04:14:38.029Z,9.07
2018-12-16T04:17:04.866Z,5.63
2018-12-16T04:19:31.953Z,6.53
2018-12-16T04:21:59.041Z,5.13
2018-12-16T04:24:25.848Z,5.40
2018-12-16T04:26:52.680Z,5.57
2018-12-16T04:29:19.551Z,5.60
2018-12-16T04:31:46.380Z,5.80
2018-12-16T04:34:13.218Z,5.47
2018-12-16T04:36:40.053Z,5.40
2018-12-16T04:39:06.898Z,5.70
2018-12-16T04:41:33.747Z,5.13
2018-12-16T04:44:00.602Z,5.60
2018-12-16T04:46:27.454Z,5.43
2018-12-16T04:48:54.329Z,5.47
2018-12-16T04:51:21.346Z,6.80
2018-12-16T04:53:48.163Z,5.27
2018-12-16T04:56:15.065Z,7.63
2018-12-16T04:58:41.904Z,4.87
2018-12-16T05:01:08.835Z,6.13
2018-12-16T05:03:35.699Z,5.43
2018-12-16T05:06:02.600Z,5.27
2018-12-16T05:08:29.515Z,5.33
2018-12-16T05:10:56.392Z,5.20
2018-12-16T05:13:23.235Z,5.93
2018-12-16T05:15:50.064Z,5.67
2018-12-16T05:18:16.921Z,5.07
2018-12-16T05:20:43.990Z,4.83
2018-12-16T05:23:10.792Z,5.60
2018-12-16T05:25:37.652Z,5.30
2018-12-16T05:28:04.499Z,7.20
2018-12-16T05:30:31.356Z,5.20
2018-12-16T05:32:58.215Z,4.97
2018-12-16T05:35:25.094Z,5.70
2018-12-16T05:37:51.937Z,5.20
2018-12-16T05:40:18.977Z,5.57
2018-12-16T05:42:45.819Z,5.00
2018-12-16T05:45:12.670Z,6.30
2018-12-16T05:47:39.659Z,5.40
2018-12-16T05:50:06.694Z,4.93
2018-12-16T05:52:33.603Z,6.33
2018-12-16T05:55:00.406Z,5.03
2018-12-16T05:57:28.242Z,5.93
2018-12-16T05:59:55.176Z,5.27
2018-12-16T06:02:22.019Z,4.80
2018-12-16T06:04:49.006Z,5.33
2018-12-16T06:07:15.851Z,5.23
2018-12-16T06:09:42.867Z,5.27
2018-12-16T06:12:09.756Z,6.80
2018-12-16T06:14:36.559Z,5.20
2018-12-16T06:17:03.438Z,5.90
2018-12-16T06:19:30.445Z,6.33
2018-12-16T06:21:57.305Z,6.80
2018-12-16T06:24:24.161Z,6.37
2018-12-16T06:26:51.092Z,5.10
2018-12-16T06:29:18.037Z,6.50
2018-12-16T06:31:44.877Z,4.90
2018-12-16T06:34:11.902Z,5.17
2018-12-16T06:36:38.902Z,4.43
2018-12-16T06:39:05.770Z,6.50
2018-12-16T06:41:32.593Z,5.83
2018-12-16T06:43:59.483Z,5.30
2018-12-16T06:46:26.367Z,5.20
2018-12-16T06:48:53.228Z,8.03
2018-12-16T06:51:20.230Z,5.73
2018-12-16T06:53:47.089Z,4.67
2018-12-16T06:56:13.961Z,5.50
2018-12-16T06:58:40.850Z,5.30
2018-12-16T07:01:07.815Z,6.60
2018-12-16T07:03:34.652Z,6.30
2018-12-16T07:06:01.491Z,5.40
2018-12-16T07:08:28.406Z,5.90
2018-12-16T07:10:55.462Z,5.47
2018-12-16T07:13:22.257Z,4.83
2018-12-16T07:15:49.094Z,4.90
2018-12-16T07:18:16.118Z,11.20
2018-12-16T07:20:43.186Z,5.20
2018-12-16T07:23:10.039Z,5.67
2018-12-16T07:25:36.938Z,5.60
2018-12-16T07:28:03.876Z,5.70
2018-12-16T07:30:30.938Z,5.10
2018-12-16T07:32:57.766Z,5.33
2018-12-16T07:35:24.682Z,6.17
2018-12-16T07:37:51.523Z,5.20
2018-12-16T07:40:18.539Z,5.47
2018-12-16T07:42:45.454Z,5.17
2018-12-16T07:45:12.374Z,4.73
2018-12-16T07:47:39.308Z,4.70
2018-12-16T07:50:06.308Z,4.97
2018-12-16T07:52:33.180Z,5.90
2018-12-16T07:55:00.024Z,5.30
2018-12-16T07:57:26.866Z,5.00
2018-12-16T07:59:53.886Z,5.37
2018-12-16T08:02:21.637Z,5.00
2018-12-16T08:04:48.592Z,4.57
2018-12-16T08:07:15.446Z,7.03
2018-12-16T08:09:42.496Z,5.33
2018-12-16T08:12:09.380Z,5.20
2018-12-16T08:14:36.321Z,4.67
2018-12-16T08:17:03.151Z,6.00
2018-12-16T08:19:30.041Z,5.50
2018-12-16T08:21:56.879Z,8.00
2018-12-16T08:24:23.734Z,5.50
2018-12-16T08:26:50.561Z,5.30
2018-12-16T08:29:17.511Z,9.90
2018-12-16T08:31:44.596Z,5.03
2018-12-16T08:34:11.399Z,5.07
2018-12-16T08:36:38.251Z,4.70
2018-12-16T08:39:05.084Z,5.93
2018-12-16T08:41:31.924Z,5.03
2018-12-16T08:43:58.759Z,6.30
2018-12-16T08:46:25.610Z,4.57
2018-12-16T08:48:52.448Z,4.50
2018-12-16T08:51:19.420Z,11.60
2018-12-16T08:53:46.263Z,5.67
2018-12-16T08:56:13.103Z,4.90
2018-12-16T08:58:39.947Z,4.60
2018-12-16T09:01:06.988Z,4.27
2018-12-16T09:03:33.814Z,4.87
2018-12-16T09:06:00.656Z,4.47
2018-12-16T09:08:27.498Z,5.43
2018-12-16T09:10:59.135Z,5.70
2018-12-16T09:13:31.455Z,4.30
2018-12-16T09:16:08.946Z,4.27
2018-12-16T09:18:38.704Z,6.27
2018-12-16T09:21:10.814Z,6.67
2018-12-16T09:23:37.671Z,4.83
2018-12-16T09:26:04.503Z,5.67
2018-12-16T09:28:31.359Z,4.93
2018-12-16T09:30:58.460Z,5.67
2018-12-16T09:33:25.435Z,5.20
2018-12-16T09:35:55.962Z,4.33
2018-12-16T09:38:22.850Z,5.23
2018-12-16T09:40:50.834Z,5.67
2018-12-16T09:43:17.961Z,7.20
2018-12-16T09:45:49.479Z,4.53
2018-12-16T09:48:13.776Z,7.97
2018-12-16T09:50:40.769Z,4.10
2018-12-16T09:53:07.702Z,9.13
2018-12-16T09:55:34.533Z,6.77
2018-12-16T09:58:01.392Z,6.70
2018-12-16T10:00:28.319Z,5.30
2018-12-16T10:02:55.426Z,4.57
2018-12-16T10:05:22.320Z,4.73
2018-12-16T10:07:49.247Z,4.80
2018-12-16T10:10:21.322Z,121.67
2018-12-16T10:12:48.354Z,53.00
2018-12-16T10:15:16.120Z,44.13
2018-12-16T10:17:43.006Z,57.80
2018-12-16T10:20:13.639Z,27.53
2018-12-16T10:22:40.750Z,38.33
2018-12-16T10:25:07.727Z,16.63
2018-12-16T10:27:34.834Z,28.67
2018-12-16T10:30:01.974Z,20.27
2018-12-16T10:32:32.468Z,13.80
2018-12-16T10:34:59.774Z,12.17
2018-12-16T10:37:26.909Z,15.93
2018-12-16T10:40:02.338Z,16.33
2018-12-16T10:42:29.205Z,21.50
2018-12-16T10:44:56.126Z,13.60
2018-12-16T10:52:49.547Z,15.53
2018-12-16T10:55:16.574Z,13.07
2018-12-16T10:57:44.504Z,10.50
2018-12-16T11:00:11.552Z,14.30
2018-12-16T11:02:38.437Z,14.47
2018-12-16T11:05:05.476Z,36.53
2018-12-16T11:07:32.334Z,7.63
2018-12-16T11:10:02.580Z,16.03
2018-12-16T11:12:29.467Z,12.00
2018-12-16T11:14:56.521Z,14.40
2018-12-16T11:17:23.667Z,11.10
2018-12-16T11:19:50.659Z,14.30
2018-12-16T11:22:18.596Z,10.30
2018-12-16T11:24:46.657Z,8.23
2018-12-16T11:27:13.500Z,8.63
2018-12-16T11:29:40.828Z,9.50
2018-12-16T11:32:11.654Z,12.00
2018-12-16T11:34:38.505Z,14.80
2018-12-16T11:37:12.007Z,14.20
2018-12-16T11:39:39.096Z,10.47
2018-12-16T11:42:06.111Z,7.57
2018-12-16T11:44:33.166Z,9.17
2018-12-16T11:46:59.996Z,8.53
2018-12-16T11:49:27.021Z,12.40
2018-12-16T11:51:53.908Z,14.70
2018-12-16T11:54:20.812Z,9.80
2018-12-16T11:56:48.329Z,10.50
2018-12-16T11:59:15.206Z,17.27
2018-12-16T12:01:42.150Z,5.97
2018-12-16T12:04:09.115Z,17.33
2018-12-16T12:06:36.000Z,14.33
2018-12-16T12:09:02.874Z,13.10
2018-12-16T12:11:29.783Z,8.57
2018-12-16T12:13:56.655Z,10.20
2018-12-16T12:16:23.566Z,8.03
2018-12-16T12:18:50.488Z,10.13
2018-12-16T12:23:56.703Z,4.60
2018-12-16T12:26:32.379Z,8.70
2018-12-16T12:28:59.286Z,8.03
2018-12-16T12:31:26.782Z,10.00
2018-12-16T12:33:53.874Z,5.77
2018-12-16T12:36:20.716Z,8.13
2018-12-16T12:38:47.685Z,6.80
2018-12-16T12:41:14.704Z,3.70
2018-12-16T12:43:41.571Z,17.53
2018-12-16T12:46:08.525Z,7.63
2018-12-16T12:48:35.468Z,7.63
2018-12-16T12:51:02.576Z,7.00
2018-12-16T12:53:29.404Z,6.87
2018-12-16T12:55:56.274Z,5.23
2018-12-16T12:58:23.126Z,6.73
2018-12-16T13:00:50.033Z,8.43
2018-12-16T13:03:16.867Z,22.87
2018-12-16T13:05:43.723Z,4.90
2018-12-16T13:08:10.587Z,9.40
2018-12-16T13:10:37.589Z,8.03
2018-12-16T13:13:04.434Z,6.20
2018-12-16T13:15:31.316Z,7.30
2018-12-16T13:17:58.207Z,3.67
2018-12-16T13:20:25.184Z,8.00
2018-12-16T13:22:52.009Z,4.57
2018-12-16T13:25:18.882Z,3.43
2018-12-16T13:27:45.713Z,2.80
2018-12-16T13:30:12.760Z,3.07
2018-12-16T13:32:39.792Z,2.93
2018-12-16T13:35:06.647Z,8.30
2018-12-16T13:37:33.495Z,3.17
2018-12-16T13:40:00.542Z,3.03
2018-12-16T13:42:27.384Z,2.60
2018-12-16T13:44:54.214Z,2.77
2018-12-16T13:47:21.533Z,2.80
2018-12-16T13:49:48.520Z,2.47
2018-12-16T13:52:15.363Z,4.80
2018-12-16T13:54:42.252Z,2.37
2018-12-16T13:57:09.307Z,4.77
2018-12-16T13:59:36.289Z,4.40
2018-12-16T14:02:03.139Z,5.17
2018-12-16T14:04:29.981Z,5.07
2018-12-16T14:06:56.821Z,5.60
2018-12-16T14:09:23.672Z,3.43
2018-12-16T14:11:50.615Z,11.33
2018-12-16T14:14:17.670Z,7.63
2018-12-16T14:16:44.510Z,6.17
2018-12-16T14:19:11.349Z,2.90
2018-12-16T14:21:38.198Z,4.33
2018-12-16T14:24:05.137Z,3.03
2018-12-16T14:26:31.964Z,6.90
2018-12-16T14:28:58.806Z,2.77
2018-12-16T14:31:25.641Z,5.83
2018-12-16T14:33:52.485Z,5.97
2018-12-16T14:36:19.322Z,3.50
2018-12-16T14:38:46.629Z,5.87
2018-12-16T14:41:13.882Z,5.37
2018-12-16T14:43:40.706Z,4.83
2018-12-16T14:46:07.735Z,3.37
2018-12-16T14:48:34.627Z,4.20
2018-12-16T14:51:01.635Z,4.50
2018-12-16T14:53:28.462Z,2.83
2018-12-16T14:55:55.592Z,3.20
2018-12-16T14:58:22.578Z,3.60
2018-12-16T15:00:49.618Z,7.50
2018-12-16T15:03:16.475Z,4.20
2018-12-16T15:05:43.309Z,6.70
2018-12-16T15:08:10.167Z,3.90
2018-12-16T15:10:37.215Z,2.70
2018-12-16T15:13:04.072Z,3.23
2018-12-16T15:15:30.907Z,3.77
2018-12-16T15:17:58.007Z,1.90
2018-12-16T15:20:25.845Z,3.10
2018-12-16T15:22:52.645Z,2.20
2018-12-16T15:25:19.489Z,2.63
2018-12-16T15:27:46.419Z,2.23
2018-12-16T15:30:13.366Z,8.73
2018-12-16T15:32:40.219Z,2.50
2018-12-16T15:35:07.065Z,4.10
2018-12-16T15:37:34.004Z,2.13
2018-12-16T15:40:00.955Z,1.90
2018-12-16T15:42:27.785Z,2.00
2018-12-16T15:44:54.615Z,2.40
2018-12-16T15:47:21.594Z,4.37
2018-12-16T15:49:48.526Z,2.17
2018-12-16T15:52:15.381Z,3.63
2018-12-16T15:54:42.213Z,2.47
2018-12-16T15:57:09.125Z,2.40
2018-12-16T15:59:36.139Z,2.20
2018-12-16T16:02:02.995Z,4.57
2018-12-16T16:04:29.849Z,3.37
2018-12-16T16:06:56.693Z,3.07
2018-12-16T16:09:23.697Z,2.37
2018-12-16T16:11:50.536Z,3.20
2018-12-16T16:14:17.574Z,6.70
2018-12-16T16:16:44.496Z,2.13
2018-12-16T16:19:11.441Z,3.67
2018-12-16T16:21:38.267Z,4.73
2018-12-16T16:24:05.131Z,3.10
2018-12-16T16:26:31.976Z,2.10
2018-12-16T16:28:58.809Z,2.13
2018-12-16T16:31:25.854Z,2.00
2018-12-16T16:33:52.989Z,3.37
2018-12-16T16:36:19.839Z,2.40
2018-12-16T16:38:48.316Z,3.10
2018-12-16T16:41:15.301Z,2.17
2018-12-16T16:43:42.151Z,3.37
2018-12-16T16:46:09.109Z,2.43
2018-12-16T16:48:35.925Z,2.40
2018-12-16T16:51:02.972Z,1.90
2018-12-16T16:53:29.798Z,2.33
2018-12-16T16:55:56.669Z,2.27
2018-12-16T16:58:23.497Z,2.30
2018-12-16T17:00:50.615Z,2.20
2018-12-16T17:03:17.484Z,5.03
2018-12-16T17:05:44.299Z,2.47
2018-12-16T17:08:15.435Z,6.50
2018-12-16T17:10:49.809Z,4.03
2018-12-16T17:13:20.348Z,3.23
2018-12-16T17:15:47.145Z,2.33
2018-12-16T17:18:14.000Z,3.50
2018-12-16T17:20:41.057Z,2.60
2018-12-16T17:23:08.672Z,7.23
2018-12-16T17:25:37.061Z,3.70
2018-12-16T17:28:04.009Z,4.93
2018-12-16T17:30:31.097Z,4.47
2018-12-16T17:32:58.068Z,5.50
2018-12-16T17:35:25.354Z,2.33
2018-12-16T17:37:52.501Z,3.27
2018-12-16T17:40:19.418Z,5.47
2018-12-16T17:42:46.458Z,7.17
2018-12-16T17:45:15.410Z,4.10
2018-12-16T17:47:42.756Z,7.53
2018-12-16T17:50:11.735Z,4.23
2018-12-16T17:52:39.229Z,3.40
2018-12-16T17:55:06.172Z,4.73
2018-12-16T17:57:33.068Z,11.90
2018-12-16T18:00:00.718Z,3.00
2018-12-16T18:02:28.058Z,3.27
2018-12-16T18:04:54.979Z,6.03
2018-12-16T18:07:21.822Z,4.70
2018-12-16T18:09:48.678Z,3.90
2018-12-16T18:12:15.531Z,3.50
2018-12-16T18:14:43.979Z,2.90
2018-12-16T18:17:10.800Z,5.33
2018-12-16T18:19:37.736Z,4.30
2018-12-16T18:22:04.611Z,4.63
2018-12-16T18:24:31.454Z,5.90
2018-12-16T18:26:58.313Z,3.37
2018-12-16T18:29:25.327Z,3.03
2018-12-16T18:31:52.272Z,4.30
2018-12-16T18:34:19.479Z,3.00
2018-12-16T18:36:46.324Z,4.17
2018-12-16T18:39:13.182Z,5.80
2018-12-16T18:41:40.086Z,6.00
2018-12-16T18:44:06.917Z,3.80
2018-12-16T18:46:33.812Z,3.93
2018-12-16T18:49:00.835Z,4.97
2018-12-16T18:51:27.690Z,4.17
2018-12-16T18:53:54.578Z,3.67
2018-12-16T18:56:21.426Z,4.60
2018-12-16T18:58:48.275Z,3.57
2018-12-16T19:01:15.283Z,3.93
2018-12-16T19:03:42.166Z,4.37
2018-12-16T19:06:09.010Z,4.53
2018-12-16T19:08:35.846Z,3.90
2018-12-16T19:11:02.840Z,8.53
2018-12-16T19:13:29.746Z,5.90
2018-12-16T19:15:56.736Z,7.43
2018-12-16T19:18:24.869Z,4.03
2018-12-16T19:20:52.244Z,7.30
2018-12-16T19:23:19.119Z,6.30
2018-12-16T19:25:45.956Z,6.63
2018-12-16T19:28:12.803Z,5.90
2018-12-16T19:30:39.878Z,4.40
2018-12-16T19:33:06.737Z,5.93
2018-12-16T19:35:33.564Z,4.90
2018-12-16T19:38:02.365Z,8.67
2018-12-16T19:40:29.444Z,7.30
2018-12-16T19:42:56.293Z,8.10
2018-12-16T19:45:23.122Z,8.10
2018-12-16T19:47:50.932Z,8.53
2018-12-16T19:50:17.845Z,9.23
2018-12-16T19:52:44.783Z,10.33
2018-12-16T19:55:11.662Z,7.70
2018-12-16T19:57:38.809Z,9.37
2018-12-16T20:00:06.138Z,7.50
2018-12-16T20:02:35.983Z,6.97
2018-12-16T20:05:03.080Z,65.50
2018-12-16T20:07:30.445Z,63.50
2018-12-16T20:09:57.547Z,45.07
2018-12-16T20:12:24.697Z,28.40
2018-12-16T20:14:51.568Z,32.43
2018-12-16T20:17:19.340Z,40.93
2018-12-16T20:19:46.591Z,23.27
2018-12-16T20:22:13.410Z,29.23
2018-12-16T20:24:40.257Z,44.77
2018-12-16T20:27:11.989Z,26.23
2018-12-16T20:29:38.182Z,22.90
2018-12-16T20:32:06.398Z,24.17
2018-12-16T20:34:33.495Z,18.30
2018-12-16T20:37:00.371Z,24.67
2018-12-16T20:39:27.440Z,14.27
2018-12-16T20:41:54.325Z,20.00
2018-12-16T20:44:21.229Z,18.33
2018-12-16T20:46:48.339Z,21.27
2018-12-16T20:49:15.471Z,20.40
2018-12-16T20:51:42.345Z,22.67
2018-12-16T20:54:09.211Z,15.47
2018-12-16T20:56:36.058Z,17.13
2018-12-16T20:59:02.926Z,17.30
2018-12-16T21:01:29.778Z,16.87
2018-12-16T21:03:56.620Z,14.37
2018-12-16T21:06:23.532Z,17.23
2018-12-16T21:08:52.388Z,18.77
2018-12-16T21:11:20.658Z,14.80
2018-12-16T21:13:47.515Z,14.53
2018-12-16T21:16:14.355Z,14.70
2018-12-16T21:18:41.217Z,14.57
2018-12-16T21:21:08.239Z,18.50
2018-12-16T21:23:35.090Z,13.43
2018-12-16T21:26:01.943Z,18.37
2018-12-16T21:28:28.778Z,14.60
2018-12-16T21:30:55.832Z,11.97
2018-12-16T21:33:22.774Z,12.60
2018-12-16T21:35:49.622Z,14.77
2018-12-16T21:38:16.557Z,15.00
2018-12-16T21:40:43.584Z,13.23
2018-12-16T21:43:10.444Z,15.07
2018-12-16T21:45:37.384Z,14.33
2018-12-16T21:48:04.231Z,17.93
2018-12-16T21:50:31.173Z,12.47
2018-12-16T21:52:58.006Z,12.37
2018-12-16T21:55:24.847Z,9.67
2018-12-16T21:57:51.727Z,12.23
2018-12-16T22:00:18.741Z,12.70
2018-12-16T22:02:45.606Z,11.67
2018-12-16T22:05:12.448Z,12.17
2018-12-16T22:07:39.298Z,17.33
2018-12-16T22:10:06.385Z,13.03
2018-12-16T22:12:33.255Z,14.77
2018-12-16T22:15:00.113Z,10.97
2018-12-16T22:17:27.482Z,11.87
2018-12-16T22:19:54.318Z,11.20
2018-12-16T22:22:21.137Z,9.80
2018-12-16T22:24:47.979Z,10.60
2018-12-16T22:27:14.954Z,10.00
2018-12-16T22:29:41.905Z,9.97
2018-12-16T22:32:08.824Z,11.50
2018-12-16T22:34:35.671Z,9.67
2018-12-16T22:37:02.515Z,7.80
2018-12-16T22:39:29.465Z,9.20
2018-12-16T22:41:56.553Z,8.83
2018-12-16T22:44:23.514Z,8.57
2018-12-16T22:46:50.364Z,9.07
2018-12-16T22:49:17.218Z,8.13
2018-12-16T22:51:44.068Z,12.33
2018-12-16T22:54:10.921Z,9.00
2018-12-16T22:56:37.764Z,9.30
2018-12-16T22:59:04.603Z,9.77
2018-12-16T23:01:31.456Z,8.30
2018-12-16T23:03:58.293Z,9.27
2018-12-16T23:06:25.169Z,11.20
2018-12-16T23:08:52.001Z,14.03
2018-12-16T23:11:18.868Z,7.83
2018-12-16T23:13:45.719Z,11.20
2018-12-16T23:16:12.538Z,9.70
2018-12-16T23:18:39.374Z,10.17
2018-12-16T23:21:06.397Z,9.10
2018-12-16T23:23:33.236Z,10.30
2018-12-16T23:26:00.076Z,9.00
2018-12-16T23:28:26.925Z,9.60
2018-12-16T23:30:53.992Z,10.43
2018-12-16T23:33:20.901Z,8.60
2018-12-16T23:35:47.838Z,7.53
2018-12-16T23:38:14.658Z,8.10
2018-12-16T23:40:41.563Z,8.77
2018-12-16T23:43:08.405Z,8.07
2018-12-16T23:45:35.235Z,7.47
2018-12-16T23:48:02.105Z,8.53
2018-12-16T23:50:29.135Z,8.40
2018-12-16T23:52:55.968Z,12.73
2018-12-16T23:55:22.821Z,8.50
2018-12-16T23:57:49.651Z,7.77
